sensor_id;sensor_type;location;lat;lon;timestamp;pressure;altitude;pressure_sealevel;temperature;humidity
3697;BME280;60662;48.810;8.872;2022-10-31T07:39:26;96945.13;;;13.51;69.65
3697;BME280;60662;48.810;8.872;2022-10-31T07:47:06;96951.63;;;14.27;67.93
3697;BME280;60662;48.810;8.872;2022-10-31T07:48:08;96947.06;;;14.62;66.55
3697;BME280;60662;48.810;8.872;2022-10-31T07:49:09;96950.88;;;14.25;67.04
3697;BME280;60662;48.810;8.872;2022-10-31T07:50:13;96949.16;;;14.08;67.75
3697;BME280;60662;48.810;8.872;2022-10-31T07:51:15;96953.69;;;14.37;67.10
3697;BME280;60662;48.810;8.872;2022-10-31T07:59:04;96951.97;;;13.71;68.92
3697;BME280;60662;48.810;8.872;2022-10-31T08:00:07;96951.53;;;13.45;69.79
3697;BME280;60662;48.810;8.872;2022-10-31T08:01:10;96950.22;;;13.19;71.25
3697;BME280;60662;48.810;8.872;2022-10-31T08:02:16;96937.72;;;13.24;71.40
3697;BME280;60662;48.810;8.872;2022-10-31T08:03:18;96930.06;;;13.54;70.47
3697;BME280;60662;48.810;8.872;2022-10-31T08:04:20;96948.09;;;13.78;69.45
3697;BME280;60662;48.810;8.872;2022-10-31T08:05:21;96921.19;;;13.91;68.82
3697;BME280;60662;48.810;8.872;2022-10-31T08:06:23;96948.06;;;14.12;68.60
3697;BME280;60662;48.810;8.872;2022-10-31T08:07:24;96946.72;;;13.71;70.23
3697;BME280;60662;48.810;8.872;2022-10-31T08:08:25;96940.63;;;13.70;70.36
3697;BME280;60662;48.810;8.872;2022-10-31T08:16:04;96934.53;;;14.35;70.25
3697;BME280;60662;48.810;8.872;2022-10-31T08:17:08;96941.31;;;14.72;69.91
3697;BME280;60662;48.810;8.872;2022-10-31T08:18:13;96928.69;;;14.46;70.34
3697;BME280;60662;48.810;8.872;2022-10-31T08:19:15;96928.69;;;14.46;70.92
3697;BME280;60662;48.810;8.872;2022-10-31T08:20:17;96935.69;;;14.46;71.28
3697;BME280;60662;48.810;8.872;2022-10-31T08:28:06;96922.69;;;16.51;63.57
3697;BME280;60662;48.810;8.872;2022-10-31T08:29:08;96922.53;;;16.40;63.59
3697;BME280;60662;48.810;8.872;2022-10-31T08:30:10;96922.59;;;16.53;63.48
3697;BME280;60662;48.810;8.872;2022-10-31T08:31:11;96921.22;;;16.47;63.74
3697;BME280;60662;48.810;8.872;2022-10-31T08:32:13;96922.38;;;16.28;64.46
3697;BME280;60662;48.810;8.872;2022-10-31T08:40:02;96922.06;;;17.15;61.85
3697;BME280;60662;48.810;8.872;2022-10-31T08:41:03;96921.69;;;17.47;60.46
3697;BME280;60662;48.810;8.872;2022-10-31T08:42:05;96915.81;;;17.43;60.61
3697;BME280;60662;48.810;8.872;2022-10-31T08:43:11;96905.66;;;17.37;60.41
3697;BME280;60662;48.810;8.872;2022-10-31T08:44:13;96912.75;;;17.50;60.28
3697;BME280;60662;48.810;8.872;2022-10-31T08:45:14;96911.47;;;17.55;59.91
3697;BME280;60662;48.810;8.872;2022-10-31T08:46:16;96913.88;;;17.84;59.37
3697;BME280;60662;48.810;8.872;2022-10-31T08:47:18;96910.72;;;18.05;59.41
3697;BME280;60662;48.810;8.872;2022-10-31T08:48:19;96912.53;;;18.04;58.96
3697;BME280;60662;48.810;8.872;2022-10-31T08:49:20;96918.63;;;18.05;58.76
3697;BME280;60662;48.810;8.872;2022-10-31T08:50:22;96916.19;;;18.15;58.78
3697;BME280;60662;48.810;8.872;2022-10-31T08:51:23;96895.19;;;18.00;58.72
3697;BME280;60662;48.810;8.872;2022-10-31T08:52:25;96918.03;;;18.38;58.26
3697;BME280;60662;48.810;8.872;2022-10-31T08:53:47;96913.28;;;18.31;58.09
3697;BME280;60662;48.810;8.872;2022-10-31T08:54:48;96907.84;;;18.21;58.28
3697;BME280;60662;48.810;8.872;2022-10-31T08:55:50;96910.84;;;18.03;58.94
3697;BME280;60662;48.810;8.872;2022-10-31T08:56:55;96911.84;;;16.83;61.82
3697;BME280;60662;48.810;8.872;2022-10-31T08:57:57;96906.13;;;16.07;64.41
3697;BME280;60662;48.810;8.872;2022-10-31T08:59:00;96905.84;;;16.54;63.91
3697;BME280;60662;48.810;8.872;2022-10-31T09:00:02;96903.81;;;16.30;63.93
3697;BME280;60662;48.810;8.872;2022-10-31T09:01:04;96897.81;;;16.28;64.64
3697;BME280;60662;48.810;8.872;2022-10-31T09:02:07;96904.63;;;16.45;64.15
3697;BME280;60662;48.810;8.872;2022-10-31T09:09:55;96899.13;;;17.69;62.02
3697;BME280;60662;48.810;8.872;2022-10-31T09:10:57;96895.16;;;17.87;61.47
3697;BME280;60662;48.810;8.872;2022-10-31T09:12:02;96894.53;;;17.97;61.01
3697;BME280;60662;48.810;8.872;2022-10-31T09:13:12;96897.97;;;18.23;60.88
3697;BME280;60662;48.810;8.872;2022-10-31T09:14:14;96891.28;;;18.06;61.18
3697;BME280;60662;48.810;8.872;2022-10-31T09:15:15;96874.56;;;17.92;61.32
3697;BME280;60662;48.810;8.872;2022-10-31T09:16:17;96894.47;;;17.98;61.64
3697;BME280;60662;48.810;8.872;2022-10-31T09:17:18;96889.25;;;17.97;62.03
3697;BME280;60662;48.810;8.872;2022-10-31T09:18:21;96892.03;;;17.95;63.15
3697;BME280;60662;48.810;8.872;2022-10-31T09:19:23;96878.38;;;18.38;62.44
3697;BME280;60662;48.810;8.872;2022-10-31T09:20:24;96892.34;;;18.65;62.32
3697;BME280;60662;48.810;8.872;2022-10-31T09:28:06;96890.28;;;21.72;54.81
3697;BME280;60662;48.810;8.872;2022-10-31T09:29:07;96893.56;;;21.43;55.11
3697;BME280;60662;48.810;8.872;2022-10-31T09:30:10;96886.13;;;20.94;55.64
3697;BME280;60662;48.810;8.872;2022-10-31T09:31:12;96886.03;;;20.84;55.99
3697;BME280;60662;48.810;8.872;2022-10-31T09:32:13;96893.09;;;20.51;57.10
3697;BME280;60662;48.810;8.872;2022-10-31T09:33:16;96882.09;;;20.67;58.23
3697;BME280;60662;48.810;8.872;2022-10-31T09:34:17;96883.22;;;21.40;56.41
3697;BME280;60662;48.810;8.872;2022-10-31T09:35:19;96884.38;;;21.68;55.70
3697;BME280;60662;48.810;8.872;2022-10-31T09:36:26;96883.56;;;21.77;54.36
3697;BME280;60662;48.810;8.872;2022-10-31T09:37:28;96887.59;;;20.87;56.70
3697;BME280;60662;48.810;8.872;2022-10-31T09:38:29;96891.50;;;21.04;56.23
3697;BME280;60662;48.810;8.872;2022-10-31T09:39:34;96874.59;;;21.26;55.31
3697;BME280;60662;48.810;8.872;2022-10-31T09:42:25;96890.00;;;20.90;55.23
3697;BME280;60662;48.810;8.872;2022-10-31T09:49:18;96905.91;;;20.23;56.70
3697;BME280;60662;48.810;8.872;2022-10-31T09:57:13;96892.22;;;19.96;57.12
3697;BME280;60662;48.810;8.872;2022-10-31T09:58:19;96897.88;;;20.02;56.75
3697;BME280;60662;48.810;8.872;2022-10-31T09:59:34;96893.66;;;20.66;56.18
3697;BME280;60662;48.810;8.872;2022-10-31T10:00:36;96886.44;;;21.01;55.61
3697;BME280;60662;48.810;8.872;2022-10-31T10:01:44;96886.69;;;21.19;54.66
3697;BME280;60662;48.810;8.872;2022-10-31T10:02:52;96887.47;;;21.73;55.00
3697;BME280;60662;48.810;8.872;2022-10-31T10:04:01;96891.13;;;21.51;53.36
3697;BME280;60662;48.810;8.872;2022-10-31T10:05:21;96887.13;;;21.57;57.50
3697;BME280;60662;48.810;8.872;2022-10-31T10:06:28;96876.84;;;21.52;54.45
3697;BME280;60662;48.810;8.872;2022-10-31T10:07:53;96881.38;;;21.19;54.64
3697;BME280;60662;48.810;8.872;2022-10-31T10:20:49;96873.63;;;20.30;58.34
3697;BME280;60662;48.810;8.872;2022-10-31T10:23:36;96872.69;;;19.97;60.92
3697;BME280;60662;48.810;8.872;2022-10-31T10:33:10;96849.00;;;21.67;59.30
3697;BME280;60662;48.810;8.872;2022-10-31T10:34:19;96854.59;;;22.05;59.07
3697;BME280;60662;48.810;8.872;2022-10-31T10:35:24;96859.47;;;22.00;57.30
3697;BME280;60662;48.810;8.872;2022-10-31T10:36:43;96859.75;;;21.97;56.57
3697;BME280;60662;48.810;8.872;2022-10-31T10:37:47;96841.72;;;21.69;56.74
3697;BME280;60662;48.810;8.872;2022-10-31T10:39:00;96863.44;;;21.53;56.42
3697;BME280;60662;48.810;8.872;2022-10-31T10:40:25;96869.53;;;21.65;56.83
3697;BME280;60662;48.810;8.872;2022-10-31T10:41:31;96867.91;;;21.53;57.30
3697;BME280;60662;48.810;8.872;2022-10-31T10:42:35;96862.41;;;21.66;57.16
3697;BME280;60662;48.810;8.872;2022-10-31T10:43:55;96866.34;;;21.50;59.13
3697;BME280;60662;48.810;8.872;2022-10-31T10:50:03;96852.19;;;21.61;58.49
3697;BME280;60662;48.810;8.872;2022-10-31T10:51:16;96851.78;;;20.81;57.96
3697;BME280;60662;48.810;8.872;2022-10-31T10:54:43;96842.38;;;21.41;59.38
3697;BME280;60662;48.810;8.872;2022-10-31T10:55:58;96854.13;;;21.38;60.85
3697;BME280;60662;48.810;8.872;2022-10-31T10:58:25;96841.19;;;21.54;59.47
3697;BME280;60662;48.810;8.872;2022-10-31T10:59:26;96830.19;;;21.80;58.56
3697;BME280;60662;48.810;8.872;2022-10-31T11:00:43;96838.00;;;21.82;58.19
3697;BME280;60662;48.810;8.872;2022-10-31T11:01:51;96813.41;;;21.90;59.09
3697;BME280;60662;48.810;8.872;2022-10-31T11:02:53;96834.91;;;21.25;61.34
3697;BME280;60662;48.810;8.872;2022-10-31T11:03:55;96831.06;;;21.39;57.60
3697;BME280;60662;48.810;8.872;2022-10-31T11:04:58;96826.75;;;21.16;61.14
3697;BME280;60662;48.810;8.872;2022-10-31T11:06:00;96817.78;;;21.39;58.87
3697;BME280;60662;48.810;8.872;2022-10-31T11:14:05;96801.00;;;21.38;61.19
3697;BME280;60662;48.810;8.872;2022-10-31T11:15:22;96808.72;;;21.20;60.15
3697;BME280;60662;48.810;8.872;2022-10-31T11:17:37;96807.91;;;20.98;61.90
3697;BME280;60662;48.810;8.872;2022-10-31T11:18:45;96801.50;;;21.01;62.11
3697;BME280;60662;48.810;8.872;2022-10-31T11:19:47;96807.19;;;19.99;59.21
3697;BME280;60662;48.810;8.872;2022-10-31T11:20:57;96808.13;;;19.64;61.22
3697;BME280;60662;48.810;8.872;2022-10-31T11:22:16;96810.44;;;19.34;60.32
3697;BME280;60662;48.810;8.872;2022-10-31T11:23:19;96811.50;;;18.85;62.25
3697;BME280;60662;48.810;8.872;2022-10-31T11:24:23;96811.25;;;18.88;62.29
3697;BME280;60662;48.810;8.872;2022-10-31T11:25:26;96810.69;;;18.84;62.88
3697;BME280;60662;48.810;8.872;2022-10-31T11:26:27;96803.81;;;18.82;61.81
3697;BME280;60662;48.810;8.872;2022-10-31T11:27:29;96802.22;;;19.03;61.50
3697;BME280;60662;48.810;8.872;2022-10-31T11:28:32;96809.47;;;18.88;61.27
3697;BME280;60662;48.810;8.872;2022-10-31T11:29:35;96805.69;;;19.04;61.38
3697;BME280;60662;48.810;8.872;2022-10-31T11:30:58;96806.31;;;18.72;60.99
3697;BME280;60662;48.810;8.872;2022-10-31T11:37:08;96803.91;;;19.72;61.05
3697;BME280;60662;48.810;8.872;2022-10-31T11:38:17;96798.63;;;19.61;61.33
3697;BME280;60662;48.810;8.872;2022-10-31T11:39:24;96796.72;;;19.63;61.24
3697;BME280;60662;48.810;8.872;2022-10-31T11:40:26;96800.47;;;19.83;63.17
3697;BME280;60662;48.810;8.872;2022-10-31T11:41:33;96787.28;;;19.82;63.47
3697;BME280;60662;48.810;8.872;2022-10-31T11:42:39;96794.75;;;19.77;64.43
3697;BME280;60662;48.810;8.872;2022-10-31T11:44:31;96792.72;;;19.80;64.22
3697;BME280;60662;48.810;8.872;2022-10-31T11:46:20;96788.38;;;19.68;64.57
3697;BME280;60662;48.810;8.872;2022-10-31T11:47:28;96803.19;;;19.82;63.91
3697;BME280;60662;48.810;8.872;2022-10-31T11:48:31;96799.38;;;19.86;63.35
3697;BME280;60662;48.810;8.872;2022-10-31T11:49:40;96794.31;;;19.83;62.73
3697;BME280;60662;48.810;8.872;2022-10-31T11:50:54;96786.69;;;19.89;63.23
3697;BME280;60662;48.810;8.872;2022-10-31T11:51:58;96791.63;;;19.94;63.47
3697;BME280;60662;48.810;8.872;2022-10-31T11:53:02;96779.72;;;20.00;64.13
3697;BME280;60662;48.810;8.872;2022-10-31T11:54:04;96777.16;;;19.75;64.17
3697;BME280;60662;48.810;8.872;2022-10-31T12:07:04;96767.78;;;20.70;63.78
3697;BME280;60662;48.810;8.872;2022-10-31T12:08:11;96747.44;;;20.81;63.65
3697;BME280;60662;48.810;8.872;2022-10-31T12:09:27;96758.38;;;20.66;61.99
3697;BME280;60662;48.810;8.872;2022-10-31T12:10:47;96757.75;;;20.74;63.29
3697;BME280;60662;48.810;8.872;2022-10-31T12:13:38;96755.53;;;21.00;61.25
3697;BME280;60662;48.810;8.872;2022-10-31T12:16:41;96747.09;;;21.16;59.24
3697;BME280;60662;48.810;8.872;2022-10-31T12:18:08;96760.03;;;20.79;61.54
3697;BME280;60662;48.810;8.872;2022-10-31T12:19:27;96753.59;;;21.02;60.36
3697;BME280;60662;48.810;8.872;2022-10-31T12:21:00;96742.66;;;20.96;60.28
3697;BME280;60662;48.810;8.872;2022-10-31T12:22:20;96737.13;;;21.09;59.81
3697;BME280;60662;48.810;8.872;2022-10-31T12:24:48;96742.81;;;20.62;60.63
3697;BME280;60662;48.810;8.872;2022-10-31T12:32:21;96717.94;;;19.77;62.16
3697;BME280;60662;48.810;8.872;2022-10-31T12:33:51;96704.84;;;19.64;62.32
3697;BME280;60662;48.810;8.872;2022-10-31T12:35:26;96739.72;;;19.80;62.11
3697;BME280;60662;48.810;8.872;2022-10-31T12:36:53;96724.47;;;19.61;63.41
3697;BME280;60662;48.810;8.872;2022-10-31T12:45:18;96724.16;;;19.09;64.70
3697;BME280;60662;48.810;8.872;2022-10-31T12:51:11;96690.47;;;19.22;67.41
3697;BME280;60662;48.810;8.872;2022-10-31T12:53:30;96700.19;;;19.22;67.93
3697;BME280;60662;48.810;8.872;2022-10-31T13:02:20;96684.56;;;18.96;71.34
3697;BME280;60662;48.810;8.872;2022-10-31T13:03:30;96684.91;;;18.91;70.73
3697;BME280;60662;48.810;8.872;2022-10-31T13:06:22;96680.84;;;18.99;69.57
3697;BME280;60662;48.810;8.872;2022-10-31T13:07:30;96672.91;;;19.10;69.67
3697;BME280;60662;48.810;8.872;2022-10-31T13:08:51;96668.69;;;19.07;69.49
3697;BME280;60662;48.810;8.872;2022-10-31T13:10:01;96662.66;;;19.05;70.19
3697;BME280;60662;48.810;8.872;2022-10-31T13:11:09;96663.03;;;19.12;69.98
3697;BME280;60662;48.810;8.872;2022-10-31T13:12:16;96667.00;;;19.18;70.54
3697;BME280;60662;48.810;8.872;2022-10-31T13:14:37;96659.53;;;19.23;69.33
3697;BME280;60662;48.810;8.872;2022-10-31T13:15:51;96664.19;;;19.42;66.99
3697;BME280;60662;48.810;8.872;2022-10-31T13:16:55;96663.25;;;19.87;63.97
3697;BME280;60662;48.810;8.872;2022-10-31T13:18:06;96650.22;;;19.51;63.26
3697;BME280;60662;48.810;8.872;2022-10-31T13:26:10;96686.00;;;22.47;55.82
3697;BME280;60662;48.810;8.872;2022-10-31T13:27:26;96685.09;;;22.76;54.68
3697;BME280;60662;48.810;8.872;2022-10-31T13:29:02;96686.00;;;23.42;53.17
3697;BME280;60662;48.810;8.872;2022-10-31T13:30:17;96672.53;;;23.89;51.14
3697;BME280;60662;48.810;8.872;2022-10-31T13:31:22;96665.03;;;24.03;50.86
3697;BME280;60662;48.810;8.872;2022-10-31T13:32:26;96662.03;;;23.88;51.23
3697;BME280;60662;48.810;8.872;2022-10-31T13:33:34;96659.69;;;24.21;50.51
3697;BME280;60662;48.810;8.872;2022-10-31T13:34:44;96665.13;;;24.55;50.11
3697;BME280;60662;48.810;8.872;2022-10-31T13:36:10;96660.94;;;24.53;48.89
3697;BME280;60662;48.810;8.872;2022-10-31T13:37:35;96664.69;;;24.42;49.77
3697;BME280;60662;48.810;8.872;2022-10-31T13:38:44;96650.03;;;24.64;49.29
3697;BME280;60662;48.810;8.872;2022-10-31T13:40:04;96660.69;;;24.20;50.34
3697;BME280;60662;48.810;8.872;2022-10-31T13:45:10;96670.44;;;22.52;53.72
3697;BME280;60662;48.810;8.872;2022-10-31T13:46:44;96666.38;;;22.58;54.49
3697;BME280;60662;48.810;8.872;2022-10-31T13:48:00;96653.81;;;22.50;54.63
3697;BME280;60662;48.810;8.872;2022-10-31T13:49:04;96655.69;;;22.67;55.36
3697;BME280;60662;48.810;8.872;2022-10-31T13:50:30;96659.53;;;21.96;57.47
3697;BME280;60662;48.810;8.872;2022-10-31T13:51:33;96644.28;;;21.89;57.95
3697;BME280;60662;48.810;8.872;2022-10-31T13:52:36;96648.47;;;21.91;58.11
3697;BME280;60662;48.810;8.872;2022-10-31T13:53:44;96641.75;;;21.87;57.89
3697;BME280;60662;48.810;8.872;2022-10-31T13:54:48;96636.19;;;21.80;58.65
3697;BME280;60662;48.810;8.872;2022-10-31T14:02:15;96635.47;;;21.18;61.32
3697;BME280;60662;48.810;8.872;2022-10-31T14:03:19;96630.75;;;21.31;60.43
3697;BME280;60662;48.810;8.872;2022-10-31T14:04:48;96637.72;;;21.83;59.31
3697;BME280;60662;48.810;8.872;2022-10-31T14:05:54;96631.69;;;22.30;57.22
3697;BME280;60662;48.810;8.872;2022-10-31T14:13:37;96619.22;;;21.62;57.94
3697;BME280;60662;48.810;8.872;2022-10-31T14:14:46;96623.28;;;21.76;57.66
3697;BME280;60662;48.810;8.872;2022-10-31T14:16:00;96637.16;;;22.28;56.87
3697;BME280;60662;48.810;8.872;2022-10-31T14:17:16;96630.00;;;22.19;56.81
3697;BME280;60662;48.810;8.872;2022-10-31T14:18:24;96628.75;;;22.43;56.26
3697;BME280;60662;48.810;8.872;2022-10-31T14:19:29;96620.59;;;22.64;55.96
3697;BME280;60662;48.810;8.872;2022-10-31T14:20:34;96624.78;;;22.66;56.17
3697;BME280;60662;48.810;8.872;2022-10-31T14:21:40;96619.44;;;22.66;55.35
3697;BME280;60662;48.810;8.872;2022-10-31T14:22:42;96608.63;;;22.78;55.06
3697;BME280;60662;48.810;8.872;2022-10-31T14:23:44;96618.25;;;22.89;54.73
3697;BME280;60662;48.810;8.872;2022-10-31T14:24:54;96620.38;;;23.13;54.44
3697;BME280;60662;48.810;8.872;2022-10-31T14:27:33;96617.53;;;23.88;53.25
3697;BME280;60662;48.810;8.872;2022-10-31T14:28:35;96616.41;;;22.42;53.30
3697;BME280;60662;48.810;8.872;2022-10-31T14:29:37;96616.31;;;21.84;55.11
3697;BME280;60662;48.810;8.872;2022-10-31T14:30:38;96623.38;;;21.54;56.61
3697;BME280;60662;48.810;8.872;2022-10-31T14:38:29;96621.00;;;22.59;55.21
3697;BME280;60662;48.810;8.872;2022-10-31T14:39:44;96617.72;;;23.13;53.52
3697;BME280;60662;48.810;8.872;2022-10-31T14:41:01;96621.50;;;23.10;52.88
3697;BME280;60662;48.810;8.872;2022-10-31T14:44:34;96611.28;;;23.06;52.76
3697;BME280;60662;48.810;8.872;2022-10-31T14:46:02;96611.41;;;22.76;53.04
3697;BME280;60662;48.810;8.872;2022-10-31T14:47:12;96607.09;;;21.18;56.23
3697;BME280;60662;48.810;8.872;2022-10-31T14:48:47;96615.19;;;21.17;57.25
3697;BME280;60662;48.810;8.872;2022-10-31T14:51:26;96608.72;;;20.48;58.74
3697;BME280;60662;48.810;8.872;2022-10-31T14:52:29;96608.13;;;20.65;58.06
3697;BME280;60662;48.810;8.872;2022-10-31T14:53:34;96607.69;;;20.39;58.88
3697;BME280;60662;48.810;8.872;2022-10-31T14:54:41;96601.94;;;19.92;60.29
3697;BME280;60662;48.810;8.872;2022-10-31T14:55:48;96601.53;;;20.08;60.55
3697;BME280;60662;48.810;8.872;2022-10-31T14:56:55;96606.63;;;20.20;60.46
3697;BME280;60662;48.810;8.872;2022-10-31T14:58:05;96593.22;;;20.22;60.74
3697;BME280;60662;48.810;8.872;2022-10-31T14:59:11;96602.88;;;20.23;62.40
3697;BME280;60662;48.810;8.872;2022-10-31T15:00:18;96597.78;;;20.10;63.67
3697;BME280;60662;48.810;8.872;2022-10-31T15:13:10;96610.81;;;19.14;68.02
3697;BME280;60662;48.810;8.872;2022-10-31T15:14:29;96609.41;;;18.99;68.73
3697;BME280;60662;48.810;8.872;2022-10-31T15:15:31;96593.75;;;18.84;68.71
3697;BME280;60662;48.810;8.872;2022-10-31T15:16:35;96610.34;;;18.86;68.66
3697;BME280;60662;48.810;8.872;2022-10-31T15:17:44;96607.00;;;18.84;68.97
3697;BME280;60662;48.810;8.872;2022-10-31T15:18:53;96602.88;;;18.69;70.07
3697;BME280;60662;48.810;8.872;2022-10-31T15:19:56;96614.91;;;18.50;70.70
3697;BME280;60662;48.810;8.872;2022-10-31T15:20:58;96607.31;;;18.46;70.97
3697;BME280;60662;48.810;8.872;2022-10-31T15:22:01;96594.44;;;18.41;71.19
3697;BME280;60662;48.810;8.872;2022-10-31T15:23:02;96598.78;;;18.42;71.29
3697;BME280;60662;48.810;8.872;2022-10-31T15:24:04;96591.31;;;18.36;71.65
3697;BME280;60662;48.810;8.872;2022-10-31T15:25:10;96588.19;;;18.31;71.80
3697;BME280;60662;48.810;8.872;2022-10-31T15:26:18;96593.47;;;18.31;71.96
3697;BME280;60662;48.810;8.872;2022-10-31T15:27:21;96570.50;;;18.08;72.38
3697;BME280;60662;48.810;8.872;2022-10-31T15:28:24;96598.88;;;18.18;72.69
